createdAt,value
2023-03-29T00:01:50.254Z,87.23
2023-03-29T00:05:57.469Z,88.04
2023-03-29T00:10:00.210Z,87.98
2023-03-29T00:14:03.000Z,88.85
2023-03-29T00:18:05.881Z,88.92
2023-03-29T00:22:10.008Z,89.17
2023-03-29T00:26:12.798Z,90.77
2023-03-29T00:30:16.184Z,89.48
2023-03-29T00:34:18.984Z,90.25
2023-03-29T00:38:23.069Z,88.62
2023-03-29T00:42:26.099Z,89.28
2023-03-29T00:46:29.990Z,86.40
2023-03-29T00:50:36.462Z,86.77
2023-03-29T00:54:41.299Z,91.05
2023-03-29T00:58:45.872Z,88.21
2023-03-29T01:02:54.568Z,88.20
2023-03-29T01:06:59.701Z,87.51
2023-03-29T01:11:08.246Z,87.40
2023-03-29T01:15:12.746Z,88.18
2023-03-29T01:19:21.451Z,87.95
2023-03-29T01:23:38.836Z,90.05
2023-03-29T01:27:52.748Z,90.57
2023-03-29T01:31:59.465Z,92.08
2023-03-29T01:36:06.337Z,92.26
2023-03-29T01:40:09.707Z,89.70
2023-03-29T01:44:18.452Z,91.94
2023-03-29T01:48:25.879Z,91.30
2023-03-29T01:52:34.845Z,90.07
2023-03-29T01:56:40.147Z,92.32
2023-03-29T02:00:45.240Z,89.60
2023-03-29T02:04:51.794Z,90.09
2023-03-29T02:08:55.785Z,89.65
2023-03-29T02:12:58.990Z,90.20
2023-03-29T02:17:16.642Z,88.32
2023-03-29T02:21:25.531Z,89.81
2023-03-29T02:25:28.441Z,92.01
2023-03-29T02:29:31.393Z,90.77
2023-03-29T02:33:39.471Z,92.92
2023-03-29T02:37:44.223Z,93.40
2023-03-29T02:41:48.653Z,92.93
2023-03-29T02:45:51.397Z,92.10
2023-03-29T02:49:55.482Z,93.34
2023-03-29T02:54:01.981Z,92.74
2023-03-29T02:58:08.466Z,88.99
2023-03-29T03:02:13.801Z,90.55
2023-03-29T03:06:18.375Z,93.39
2023-03-29T03:10:21.272Z,92.62
2023-03-29T03:14:24.077Z,91.25
2023-03-29T03:18:27.692Z,91.70
2023-03-29T03:22:32.500Z,90.40
2023-03-29T03:26:36.257Z,93.17
2023-03-29T03:30:39.236Z,94.71
2023-03-29T03:34:41.915Z,94.75
2023-03-29T03:38:46.320Z,93.31
2023-03-29T03:42:48.821Z,90.76
2023-03-29T03:46:51.698Z,88.62
2023-03-29T03:50:57.007Z,90.57
2023-03-29T03:55:02.835Z,92.98
2023-03-29T03:59:07.168Z,90.16
2023-03-29T04:03:10.209Z,93.23
2023-03-29T04:07:13.151Z,90.17
2023-03-29T04:11:17.349Z,89.04
2023-03-29T04:15:20.392Z,91.72
2023-03-29T04:19:23.410Z,93.32
2023-03-29T04:23:26.174Z,91.71
2023-03-29T04:27:31.006Z,91.39
2023-03-29T04:31:33.922Z,92.02
2023-03-29T04:35:36.964Z,89.63
2023-03-29T04:39:39.834Z,92.38
2023-03-29T04:43:46.904Z,93.72
2023-03-29T04:47:49.757Z,92.28
2023-03-29T04:51:53.374Z,89.44
2023-03-29T04:55:57.980Z,94.37
2023-03-29T05:00:02.163Z,95.57
2023-03-29T05:04:05.881Z,92.88
2023-03-29T05:08:09.611Z,91.16
2023-03-29T05:12:12.352Z,95.43
2023-03-29T05:16:16.984Z,93.83
2023-03-29T05:20:19.946Z,92.82
2023-03-29T05:24:23.126Z,93.19
2023-03-29T05:28:26.407Z,95.41
2023-03-29T05:32:31.340Z,92.18
2023-03-29T05:36:34.569Z,89.58
2023-03-29T05:40:37.331Z,94.02
2023-03-29T05:44:40.055Z,95.43
2023-03-29T05:48:44.264Z,95.52
2023-03-29T05:52:47.940Z,91.81
2023-03-29T05:56:51.209Z,95.25
2023-03-29T06:00:53.995Z,95.80
2023-03-29T06:04:58.201Z,95.31
2023-03-29T06:09:02.331Z,92.60
2023-03-29T06:13:06.139Z,94.19
2023-03-29T06:17:09.015Z,95.60
2023-03-29T06:21:16.341Z,93.41
2023-03-29T06:25:19.822Z,94.95
2023-03-29T06:29:22.552Z,93.82
2023-03-29T06:33:25.406Z,94.38
2023-03-29T06:37:30.481Z,93.48
2023-03-29T06:41:33.156Z,94.03
2023-03-29T06:45:37.721Z,93.37
2023-03-29T06:49:40.714Z,90.86
2023-03-29T06:53:44.933Z,92.18
2023-03-29T06:57:48.087Z,91.90
2023-03-29T07:01:52.617Z,91.30
2023-03-29T07:06:01.431Z,90.91
2023-03-29T07:10:06.474Z,91.71
2023-03-29T07:14:09.802Z,91.37
2023-03-29T07:18:13.238Z,89.71
2023-03-29T07:22:16.439Z,89.37
2023-03-29T07:26:29.402Z,89.96
2023-03-29T07:30:33.174Z,89.11
2023-03-29T07:34:36.982Z,90.30
2023-03-29T07:38:40.145Z,90.22
2023-03-29T07:42:45.084Z,87.76
2023-03-29T07:46:48.421Z,87.27
2023-03-29T07:50:51.529Z,89.02
2023-03-29T07:54:54.256Z,86.62
2023-03-29T07:58:58.252Z,87.85
2023-03-29T08:03:02.048Z,86.89
2023-03-29T08:07:05.904Z,87.07
2023-03-29T08:11:10.144Z,87.05
2023-03-29T08:15:15.290Z,84.84
2023-03-29T08:19:18.367Z,87.59
2023-03-29T08:23:21.286Z,79.79
2023-03-29T08:27:24.181Z,82.99
2023-03-29T08:31:28.501Z,82.01
2023-03-29T08:35:31.651Z,84.87
2023-03-29T08:39:35.473Z,81.36
2023-03-29T08:43:50.489Z,80.08
2023-03-29T08:47:59.509Z,80.41
2023-03-29T08:52:04.617Z,78.62
2023-03-29T08:56:10.525Z,77.28
2023-03-29T09:00:21.668Z,75.95
2023-03-29T09:04:28.418Z,76.50
2023-03-29T09:08:31.506Z,73.92
2023-03-29T09:12:44.302Z,71.30
2023-03-29T09:16:52.955Z,72.43
2023-03-29T09:21:02.188Z,72.38
2023-03-29T09:25:11.661Z,72.04
2023-03-29T09:29:32.013Z,72.65
2023-03-29T09:33:42.782Z,67.83
2023-03-29T09:37:47.569Z,65.40
2023-03-29T09:41:52.813Z,67.51
2023-03-29T09:45:57.262Z,67.83
2023-03-29T09:50:04.337Z,65.07
2023-03-29T09:54:11.148Z,64.48
2023-03-29T09:58:17.056Z,63.45
2023-03-29T10:02:21.121Z,63.28
2023-03-29T10:06:26.835Z,62.84
2023-03-29T10:10:32.954Z,61.92
2023-03-29T10:14:38.347Z,61.52
2023-03-29T10:18:42.597Z,61.17
2023-03-29T10:22:50.112Z,60.84
2023-03-29T10:26:55.823Z,57.66
2023-03-29T10:31:00.720Z,58.98
2023-03-29T10:35:09.734Z,57.97
2023-03-29T10:39:15.558Z,56.94
2023-03-29T10:43:24.558Z,59.42
2023-03-29T10:47:28.086Z,60.19
2023-03-29T10:51:31.228Z,58.00
2023-03-29T10:55:35.116Z,59.73
2023-03-29T10:59:41.963Z,59.59
2023-03-29T11:04:00.589Z,56.98
2023-03-29T11:08:14.974Z,57.91
2023-03-29T11:12:20.880Z,55.52
2023-03-29T11:16:30.765Z,58.86
2023-03-29T11:20:39.956Z,61.49
2023-03-29T11:24:53.719Z,58.85
2023-03-29T11:28:59.375Z,60.18
2023-03-29T11:33:13.905Z,61.90
2023-03-29T11:37:20.641Z,59.64
2023-03-29T11:41:25.773Z,59.83
2023-03-29T11:45:31.363Z,59.51
2023-03-29T11:49:39.533Z,60.06
2023-03-29T11:53:47.540Z,59.74
2023-03-29T11:57:54.020Z,58.36
2023-03-29T12:02:03.370Z,61.89
2023-03-29T12:06:14.419Z,59.68
2023-03-29T12:10:19.704Z,61.82
2023-03-29T12:14:28.094Z,63.22
2023-03-29T12:18:34.456Z,64.42
2023-03-29T12:22:39.103Z,65.23
2023-03-29T12:26:51.792Z,64.83
2023-03-29T12:31:00.193Z,65.49
2023-03-29T12:35:22.162Z,66.87
2023-03-29T12:39:26.846Z,70.10
2023-03-29T12:43:32.464Z,70.67
2023-03-29T12:47:43.374Z,69.74
2023-03-29T12:51:46.474Z,68.41
2023-03-29T12:55:55.933Z,71.91
2023-03-29T13:00:12.341Z,70.79
2023-03-29T13:04:20.350Z,69.79
2023-03-29T13:08:24.571Z,68.41
2023-03-29T13:12:32.948Z,68.63
2023-03-29T13:16:36.972Z,67.07
2023-03-29T13:20:46.744Z,69.67
2023-03-29T13:25:08.285Z,66.74
2023-03-29T13:29:33.727Z,67.44
2023-03-29T13:33:46.285Z,69.39
2023-03-29T13:37:57.064Z,67.65
2023-03-29T13:42:09.825Z,67.62
2023-03-29T13:46:23.272Z,67.02
2023-03-29T13:50:34.633Z,66.22
2023-03-29T13:54:41.878Z,65.33
2023-03-29T13:58:48.170Z,63.90
2023-03-29T14:02:55.229Z,62.98
2023-03-29T14:06:58.942Z,63.43
2023-03-29T14:11:02.378Z,62.72
2023-03-29T14:15:07.472Z,63.38
2023-03-29T14:19:16.451Z,64.50
2023-03-29T14:23:22.297Z,60.94
2023-03-29T14:27:24.997Z,59.82
2023-03-29T14:31:31.705Z,59.88
2023-03-29T14:35:36.364Z,61.63
2023-03-29T14:39:41.011Z,59.56
2023-03-29T14:43:43.779Z,59.89
2023-03-29T14:47:47.493Z,59.79
2023-03-29T14:51:52.929Z,61.21
2023-03-29T14:55:56.773Z,60.30
2023-03-29T15:00:02.258Z,61.74
2023-03-29T15:04:07.204Z,60.12
2023-03-29T15:08:15.457Z,61.40
2023-03-29T15:12:18.695Z,60.10
2023-03-29T15:16:22.812Z,59.27
2023-03-29T15:20:27.333Z,56.81
2023-03-29T15:24:33.463Z,59.39
2023-03-29T15:28:37.277Z,60.66
2023-03-29T15:32:41.499Z,60.48
2023-03-29T15:36:46.645Z,58.66
2023-03-29T15:40:51.004Z,59.38
2023-03-29T15:44:56.375Z,60.80
2023-03-29T15:48:59.469Z,59.72
2023-03-29T15:53:14.159Z,60.07
2023-03-29T15:57:23.661Z,61.03
2023-03-29T16:01:33.813Z,61.85
2023-03-29T16:05:36.813Z,65.91
2023-03-29T16:09:39.768Z,60.26
2023-03-29T16:13:44.177Z,60.78
2023-03-29T16:17:47.307Z,61.38
2023-03-29T16:21:50.606Z,62.40
2023-03-29T16:25:53.480Z,60.15
2023-03-29T16:29:58.954Z,60.35
2023-03-29T16:34:01.817Z,60.67
2023-03-29T16:38:04.841Z,59.70
2023-03-29T16:42:07.611Z,63.07
2023-03-29T16:46:12.881Z,62.40
2023-03-29T16:50:18.109Z,63.84
2023-03-29T16:54:20.956Z,62.35
2023-03-29T16:58:24.181Z,62.72
2023-03-29T17:02:28.301Z,62.34
2023-03-29T17:06:32.313Z,67.57
2023-03-29T17:10:35.013Z,68.31
2023-03-29T17:14:38.154Z,66.00
2023-03-29T17:18:42.230Z,69.43
2023-03-29T17:22:45.154Z,72.87
2023-03-29T17:26:48.031Z,72.65
2023-03-29T17:30:50.980Z,74.10
2023-03-29T17:34:55.145Z,73.91
2023-03-29T17:43:02.940Z,73.82
2023-03-29T17:47:05.926Z,76.03
2023-03-29T17:51:10.368Z,76.77
2023-03-29T17:55:13.929Z,77.46
2023-03-29T17:59:16.691Z,77.17
2023-03-29T18:03:19.809Z,79.14
2023-03-29T18:07:23.995Z,76.95
2023-03-29T18:11:27.308Z,78.04
2023-03-29T18:15:30.050Z,77.72
2023-03-29T18:19:32.852Z,78.73
2023-03-29T18:23:39.754Z,77.98
2023-03-29T18:27:42.543Z,78.46
2023-03-29T18:31:45.997Z,79.66
2023-03-29T18:35:50.553Z,80.40
2023-03-29T18:39:54.840Z,82.04
2023-03-29T18:44:00.124Z,81.35
2023-03-29T18:48:05.610Z,82.17
2023-03-29T18:52:09.102Z,81.48
2023-03-29T18:56:13.458Z,81.24
2023-03-29T19:00:17.567Z,81.94
2023-03-29T19:04:20.671Z,79.86
2023-03-29T19:08:23.916Z,80.34
2023-03-29T19:12:28.075Z,81.93
2023-03-29T19:16:31.064Z,83.10
2023-03-29T19:20:33.912Z,84.42
2023-03-29T19:24:36.808Z,82.02
2023-03-29T19:28:40.864Z,81.52
2023-03-29T19:32:43.632Z,82.94
2023-03-29T19:36:47.138Z,82.09
2023-03-29T19:40:51.553Z,86.20
2023-03-29T19:44:55.671Z,82.75
2023-03-29T19:48:59.819Z,85.03
2023-03-29T19:53:02.522Z,85.88
2023-03-29T19:57:07.353Z,83.31
2023-03-29T20:01:11.678Z,84.51
2023-03-29T20:05:16.306Z,84.11
2023-03-29T20:09:19.092Z,83.51
2023-03-29T20:13:31.261Z,84.57
2023-03-29T20:17:41.649Z,82.38
2023-03-29T20:21:44.488Z,81.37
2023-03-29T20:25:47.996Z,84.38
2023-03-29T20:29:50.763Z,85.51
2023-03-29T20:33:57.059Z,87.76
2023-03-29T20:38:00.713Z,86.44
2023-03-29T20:42:03.521Z,86.51
2023-03-29T20:46:14.386Z,87.11
2023-03-29T20:50:20.706Z,88.68
2023-03-29T20:54:23.798Z,87.95
2023-03-29T20:58:27.319Z,89.76
2023-03-29T21:02:30.161Z,90.45
2023-03-29T21:06:34.357Z,88.93
2023-03-29T21:10:37.599Z,88.19
2023-03-29T21:14:40.367Z,89.71
2023-03-29T21:18:43.491Z,89.08
2023-03-29T21:22:47.677Z,89.69
2023-03-29T21:26:51.125Z,87.52
2023-03-29T21:30:54.031Z,89.00
2023-03-29T21:34:56.793Z,89.66
2023-03-29T21:39:01.263Z,90.43
2023-03-29T21:43:04.076Z,89.99
2023-03-29T21:47:06.863Z,89.83
2023-03-29T21:51:10.072Z,90.75
2023-03-29T21:55:14.531Z,90.41
2023-03-29T21:59:17.404Z,90.82
2023-03-29T22:03:20.437Z,91.27
2023-03-29T22:07:28.046Z,91.35
2023-03-29T22:11:32.549Z,93.23
2023-03-29T22:15:36.065Z,92.24
2023-03-29T22:19:39.879Z,94.13
2023-03-29T22:23:43.549Z,93.39
2023-03-29T22:27:49.243Z,92.22
2023-03-29T22:31:52.339Z,93.50
2023-03-29T22:35:55.157Z,91.55
2023-03-29T22:39:57.990Z,93.07
2023-03-29T22:44:02.400Z,92.32
2023-03-29T22:48:05.665Z,93.16
2023-03-29T22:52:08.859Z,91.08
2023-03-29T22:56:11.562Z,90.32
2023-03-29T23:00:17.546Z,92.66
2023-03-29T23:04:20.482Z,95.28
2023-03-29T23:08:23.621Z,91.71
2023-03-29T23:12:27.150Z,92.58
2023-03-29T23:16:31.706Z,94.52
2023-03-29T23:20:35.382Z,95.03
2023-03-29T23:24:38.207Z,94.14
2023-03-29T23:28:41.068Z,93.74
2023-03-29T23:32:45.706Z,96.08
2023-03-29T23:36:48.481Z,93.35
2023-03-29T23:40:55.382Z,92.54
2023-03-29T23:44:58.173Z,94.76
2023-03-29T23:49:02.436Z,95.76
2023-03-29T23:53:05.237Z,95.16
2023-03-29T23:57:08.116Z,93.18
